RJOE weather

Public forecast

Using degrees Celsius for public forecast. Weather courtesy of forecast.io.

Current aviation weather report (METAR) for Akeno Airport

Report is more than 6 hours old.

Retrieved 2020/08/05 21:33 UTC (9 days ago):

RJOE 052133Z 17003KT 6000 FEW006 SCT010 25/23 Q1015 RMK 1ST006 3CU010 A2999

Closest aviation forecast (TAF) to Akeno Airport

Closest forecast is Chubu Centrair International Airport, 20.6 nm (38.1 km) NNE. Retrieved 2020/08/14 18:00 UTC (5 hours ago):

TAF RJGG 141706Z 1418/1600 32006KT 9999 FEW030 BECMG 1502/1504 22005KT BECMG 1506/1509 32012KT